Terminal Aerodrome Forecast
Issued by NWS

Home | Current Version | Previous Version | Text Only | Print | Product List | Glossary On
Versions: 1 2 3 4 5 6 7 8 9 10 11 12 13 14
000
FTUS45 KABQ 232300
TAFGUP
TAF
KGUP 232332Z 2400/2424 03011KT P6SM VCTS SCT100CB BKN130
      TEMPO 2400/2402 VRB15G30KT -TSRA BKN080CB
     FM240200 15009KT P6SM SCT100 BKN150
     FM240600 VRB04KT P6SM SCT150
     FM241600 22010KT P6SM FEW100
     FM242000 22011G19KT P6SM SCT100=

USA.gov is the U.S. government's official web portal to all federal, state and local government web resources and services.